Time;durP1;ratioP1;P1;durP2;ratioP2;P2;SDS_P1;SDS_P2;PMS_P1;PMS_P2;Temp;Humidity;BMP_temperature;BMP_pressure;BME280_temperature;BME280_humidity;BME280_pressure;Samples;Min_cycle;Max_cycle;Signal;HPM_P1;HPM_P2
2022/06/16 00:00:11;;;;;;;0.93;0.40;;;;;;;27.19;45.44;100767.44;4989550;28;20034;-70
2022/06/16 00:02:45;;;;;;;2.03;0.88;;;;;;;27.19;45.49;100770.09;4990535;28;20076;-70
2022/06/16 00:05:13;;;;;;;2.27;0.60;;;;;;;27.19;45.44;100769.28;4990394;28;20443;-71
2022/06/16 00:07:40;;;;;;;1.77;0.60;;;;;;;27.20;45.64;100768.25;4990697;28;20056;-71
2022/06/16 00:10:06;;;;;;;1.23;0.57;;;;;;;27.20;45.62;100770.91;4988845;28;20478;-71
2022/06/16 00:12:32;;;;;;;1.10;0.43;;;;;;;27.20;45.36;100769.06;4992071;28;20397;-72
2022/06/16 00:14:58;;;;;;;1.13;0.40;;;;;;;27.20;45.48;100769.06;4988609;28;20084;-69
2022/06/16 00:17:25;;;;;;;0.82;0.32;;;;;;;27.20;45.32;100757.53;4987451;28;20482;-71
2022/06/16 00:19:50;;;;;;;1.17;0.40;;;;;;;27.20;45.29;100758.34;4990225;28;20026;-71
2022/06/16 00:22:16;;;;;;;2.13;0.50;;;;;;;27.21;45.79;100759.16;4987617;28;20120;-70
2022/06/16 00:24:41;;;;;;;1.27;0.45;;;;;;;27.20;45.44;100761.03;4991158;28;20364;-71
2022/06/16 00:27:07;;;;;;;1.67;0.50;;;;;;;27.21;45.56;100756.50;4991090;28;20030;-71
2022/06/16 00:29:34;;;;;;;0.93;0.40;;;;;;;27.20;45.30;100753.00;4990746;28;20556;-70
2022/06/16 00:32:00;;;;;;;0.70;0.40;;;;;;;27.21;45.19;100753.81;4987384;28;20069;-71
2022/06/16 00:34:25;;;;;;;1.25;0.40;;;;;;;27.21;45.47;100751.94;4988468;28;20038;-72
2022/06/16 00:36:52;;;;;;;1.58;0.85;;;;;;;27.21;45.37;100753.81;4990570;28;20096;-71
2022/06/16 00:39:17;;;;;;;1.45;0.50;;;;;;;27.21;45.55;100754.63;4989022;28;20045;-70
2022/06/16 00:41:43;;;;;;;1.52;0.43;;;;;;;27.21;45.04;100749.28;4985918;28;20625;-72
2022/06/16 00:44:42;;;;;;;2.08;0.60;;;;;;;27.18;45.45;100739.06;4989907;28;20053;-71
2022/06/16 00:47:07;;;;;;;1.25;0.40;;;;;;;27.17;45.57;100737.44;4970953;28;20495;-70
2022/06/16 00:49:35;;;;;;;0.93;0.40;;;;;;;27.17;45.44;100740.13;4986568;28;20458;-69
2022/06/16 00:52:06;;;;;;;1.83;0.50;;;;;;;27.17;45.80;100740.13;4988665;28;20065;-71
2022/06/16 00:54:41;;;;;;;0.93;0.50;;;;;;;27.17;45.53;100736.66;4989131;28;20069;-70
2022/06/16 00:57:13;;;;;;;1.48;0.50;;;;;;;27.17;45.92;100731.28;4992694;28;20865;-72
2022/06/16 00:59:39;;;;;;;1.50;0.60;;;;;;;27.17;45.54;100726.75;4989455;28;20034;-70
2022/06/16 01:02:06;;;;;;;2.72;0.60;;;;;;;27.16;45.80;100725.13;4987897;28;20026;-71
2022/06/16 01:07:17;;;;;;;0.90;0.40;;;;;;;27.17;45.76;100717.91;4984491;28;20049;-71
2022/06/16 01:09:43;;;;;;;2.25;0.40;;;;;;;27.17;45.64;100721.41;4989120;28;20491;-71
2022/06/16 01:15:08;;;;;;;2.03;0.47;;;;;;;27.16;45.57;100724.31;4987967;28;20099;-70
2022/06/16 01:17:52;;;;;;;2.03;0.60;;;;;;;27.14;45.68;100713.88;4981462;28;20561;-69
2022/06/16 01:20:22;;;;;;;1.52;0.40;;;;;;;27.15;45.91;100712.00;4986675;28;20069;-71
2022/06/16 01:22:59;;;;;;;1.15;0.43;;;;;;;27.15;45.85;100709.34;4987892;28;20035;-69
2022/06/16 01:25:52;;;;;;;1.33;0.50;;;;;;;27.12;45.93;100705.28;4987453;28;20038;-71
2022/06/16 01:28:20;;;;;;;3.97;0.50;;;;;;;27.14;45.92;100705.84;4992095;28;20048;-70
2022/06/16 01:31:12;;;;;;;1.95;0.47;;;;;;;27.14;45.77;100705.84;4988893;28;20449;-71
2022/06/16 01:33:46;;;;;;;1.70;0.60;;;;;;;27.14;45.55;100705.03;4986973;28;20494;-70
2022/06/16 01:36:42;;;;;;;1.27;0.60;;;;;;;27.13;45.72;100700.75;4986960;28;20030;-70
2022/06/16 01:39:16;;;;;;;1.42;0.52;;;;;;;27.13;45.32;100704.22;4987205;28;20499;-71
2022/06/16 01:42:17;;;;;;;1.00;0.40;;;;;;;27.13;45.54;100703.41;4989272;28;20470;-72
2022/06/16 01:44:55;;;;;;;1.23;0.40;;;;;;;27.13;45.48;100704.22;4970027;28;20146;-71
2022/06/16 01:47:23;;;;;;;2.58;0.40;;;;;;;27.14;45.32;100703.19;4980135;28;20089;-70
2022/06/16 01:49:54;;;;;;;2.72;0.98;;;;;;;27.13;45.54;100688.19;4988223;28;20041;-72
2022/06/16 01:52:55;;;;;;;1.67;0.50;;;;;;;27.08;45.58;100688.94;4988512;28;20041;-71
2022/06/16 01:55:29;;;;;;;3.15;0.50;;;;;;;27.10;45.45;100689.50;4956112;28;20047;-71
2022/06/16 01:58:05;;;;;;;3.77;0.60;;;;;;;27.09;45.43;100685.19;4990457;28;20457;-71
2022/06/16 02:00:33;;;;;;;2.83;0.50;;;;;;;27.10;45.52;100688.69;4989498;28;20430;-69
2022/06/16 02:03:29;;;;;;;2.50;0.50;;;;;;;27.11;45.06;100684.94;4986809;28;20023;-70
2022/06/16 02:05:57;;;;;;;2.55;0.50;;;;;;;27.09;45.20;100687.06;4986192;28;20046;-69
2022/06/16 02:08:33;;;;;;;2.08;0.50;;;;;;;27.08;45.12;100690.78;4988295;28;20031;-70
2022/06/16 02:11:08;;;;;;;1.33;0.50;;;;;;;27.08;45.31;100682.78;4988119;28;20045;-71
2022/06/16 02:13:39;;;;;;;2.22;0.70;;;;;;;27.09;45.15;100692.41;4990132;28;20038;-69
2022/06/16 02:16:18;;;;;;;2.33;0.85;;;;;;;27.07;45.35;100687.31;4987146;28;20034;-71
2022/06/16 02:18:45;;;;;;;1.13;0.60;;;;;;;27.06;45.22;100682.22;4987550;28;20117;-71
2022/06/16 02:21:17;;;;;;;2.83;0.82;;;;;;;27.05;45.07;100681.41;4984629;28;20046;-68
2022/06/16 02:23:44;;;;;;;1.67;0.70;;;;;;;27.05;45.10;100675.25;4987595;28;20145;-70
2022/06/16 02:26:10;;;;;;;0.93;0.45;;;;;;;27.03;45.03;100669.34;4985651;28;20407;-71
2022/06/16 02:28:46;;;;;;;1.73;0.60;;;;;;;26.98;45.23;100669.25;4986007;28;20037;-69
2022/06/16 02:31:40;;;;;;;1.52;0.55;;;;;;;26.96;45.35;100661.50;4986267;28;20034;-71
2022/06/16 02:34:30;;;;;;;1.30;0.50;;;;;;;26.96;45.19;100677.53;4984201;28;20030;-71
2022/06/16 02:36:59;;;;;;;1.55;0.60;;;;;;;26.99;45.33;100668.22;4985176;28;20108;-70
2022/06/16 02:39:33;;;;;;;2.33;0.70;;;;;;;26.98;45.27;100672.75;4984627;28;20066;-68
2022/06/16 02:42:01;;;;;;;3.10;1.25;;;;;;;26.97;45.26;100678.34;4984993;28;20092;-71
2022/06/16 02:44:50;;;;;;;2.15;0.60;;;;;;;26.94;45.13;100673.50;4984413;28;20042;-72
2022/06/16 02:47:45;;;;;;;4.05;0.70;;;;;;;26.96;45.42;100671.38;4984553;28;20065;-69
2022/06/16 02:50:24;;;;;;;3.38;0.65;;;;;;;26.94;45.43;100673.50;4982940;28;20034;-72
2022/06/16 02:53:09;;;;;;;1.80;0.50;;;;;;;26.94;45.38;100668.91;4984116;28;20485;-71
2022/06/16 02:55:41;;;;;;;1.00;0.55;;;;;;;26.96;45.17;100658.00;4983474;28;20030;-71
2022/06/16 02:58:09;;;;;;;1.67;0.40;;;;;;;26.99;45.26;100668.22;4989005;28;20152;-70
2022/06/16 03:00:39;;;;;;;1.35;0.52;;;;;;;27.00;45.67;100669.81;4984964;28;20088;-69
2022/06/16 03:03:20;;;;;;;2.15;0.70;;;;;;;26.99;45.28;100665.53;4983811;28;20093;-72
2022/06/16 03:05:49;;;;;;;1.92;0.60;;;;;;;26.99;45.18;100668.22;4988154;28;20042;-71
2022/06/16 03:08:15;;;;;;;1.42;0.50;;;;;;;27.00;45.52;100673.31;4987296;28;20137;-69
2022/06/16 03:10:53;;;;;;;2.08;0.77;;;;;;;27.00;45.41;100669.81;4989600;28;20046;-69
2022/06/16 03:13:27;;;;;;;1.05;0.52;;;;;;;26.98;45.27;100664.72;4990036;28;20042;-69
2022/06/16 03:15:54;;;;;;;1.20;0.60;;;;;;;26.97;45.44;100667.66;4988329;28;20181;-71
2022/06/16 03:18:20;;;;;;;1.58;0.73;;;;;;;26.97;45.47;100662.31;4990642;28;20532;-71
2022/06/16 03:20:47;;;;;;;2.55;0.70;;;;;;;26.96;45.46;100666.84;4991092;28;20037;-70
2022/06/16 03:23:13;;;;;;;2.25;0.98;;;;;;;26.97;45.42;100662.31;4994725;28;20052;-71
2022/06/16 03:25:40;;;;;;;2.53;0.70;;;;;;;26.96;45.56;100658.81;4989321;28;20393;-70
2022/06/16 03:28:05;;;;;;;1.60;0.70;;;;;;;26.96;45.61;100656.16;4989611;28;20026;-70
2022/06/16 03:30:31;;;;;;;1.63;0.75;;;;;;;26.96;45.63;100661.50;4992218;28;20034;-69
2022/06/16 03:32:56;;;;;;;2.58;0.50;;;;;;;26.96;45.41;100666.03;4989317;28;20491;-71
2022/06/16 03:35:22;;;;;;;1.48;0.75;;;;;;;26.94;45.55;100663.56;4990103;28;20042;-70
2022/06/16 03:37:48;;;;;;;1.02;0.40;;;;;;;26.96;45.35;100660.69;4990003;28;20035;-71
2022/06/16 03:40:13;;;;;;;3.58;0.60;;;;;;;26.95;45.56;100659.84;4989434;28;20046;-69
2022/06/16 03:42:40;;;;;;;1.35;0.47;;;;;;;26.95;45.37;100659.84;4989356;28;20037;-71
2022/06/16 03:45:07;;;;;;;2.25;0.50;;;;;;;26.97;45.35;100662.31;4991877;28;20034;-70
2022/06/16 03:47:33;;;;;;;1.85;0.68;;;;;;;26.96;45.53;100664.16;4990434;28;20038;-69
2022/06/16 03:49:58;;;;;;;0.90;0.50;;;;;;;26.95;45.43;100657.16;4990576;28;20667;-71
2022/06/16 03:52:24;;;;;;;1.60;0.52;;;;;;;26.96;45.59;100660.69;4989679;28;20039;-69
2022/06/16 03:54:49;;;;;;;1.98;0.50;;;;;;;26.96;45.41;100661.50;4990539;28;20066;-70
2022/06/16 03:57:15;;;;;;;2.35;0.75;;;;;;;26.96;45.37;100663.34;4988763;28;20758;-70
2022/06/16 03:59:40;;;;;;;1.88;0.60;;;;;;;26.96;45.60;100666.84;4988735;28;20044;-69
2022/06/16 04:02:05;;;;;;;1.73;0.70;;;;;;;26.94;45.47;100663.56;4991385;28;20045;-69
2022/06/16 04:04:31;;;;;;;0.80;0.50;;;;;;;26.95;45.47;100672.41;4990677;28;20117;-72
2022/06/16 04:06:57;;;;;;;1.20;0.60;;;;;;;26.96;45.44;100676.72;4989326;28;20036;-72
2022/06/16 04:09:24;;;;;;;4.20;0.93;;;;;;;26.95;45.47;100675.88;4992913;28;20102;-72
2022/06/16 04:11:49;;;;;;;2.03;0.70;;;;;;;26.96;45.80;100671.38;4990192;28;20549;-71
2022/06/16 04:14:15;;;;;;;2.42;0.80;;;;;;;26.94;45.57;100671.59;4991997;28;20044;-70
2022/06/16 04:16:52;;;;;;;0.80;0.68;;;;;;;26.95;45.77;100669.72;4983447;28;20033;-70
2022/06/16 04:19:21;;;;;;;2.70;1.02;;;;;;;26.95;45.82;100659.03;4988278;28;20029;-71
2022/06/16 04:21:47;;;;;;;2.58;0.70;;;;;;;26.93;46.06;100656.63;4989386;28;20038;-70
2022/06/16 04:24:14;;;;;;;2.83;1.10;;;;;;;26.92;46.12;100654.22;4988052;28;20504;-70
2022/06/16 04:26:39;;;;;;;3.67;1.52;;;;;;;26.90;47.14;100664.34;4988818;28;20042;-69
2022/06/16 04:29:06;;;;;;;5.90;1.90;;;;;;;26.96;48.66;100661.50;4988553;28;20677;-70
2022/06/16 04:31:32;;;;;;;6.72;1.20;;;;;;;26.97;47.98;100667.66;4989926;28;20127;-70
2022/06/16 04:33:58;;;;;;;7.05;1.48;;;;;;;26.97;47.85;100662.31;4990091;28;20537;-70
2022/06/16 04:36:25;;;;;;;4.78;0.90;;;;;;;26.96;47.51;100661.50;4989775;28;20026;-70
2022/06/16 04:38:51;;;;;;;2.97;0.82;;;;;;;26.94;47.13;100670.81;4990658;28;20043;-71
2022/06/16 04:41:17;;;;;;;2.65;0.95;;;;;;;26.93;47.29;100659.31;4989988;28;20041;-70
2022/06/16 04:43:43;;;;;;;1.35;0.90;;;;;;;26.94;47.55;100657.44;4987953;28;20430;-70
2022/06/16 04:46:08;;;;;;;3.38;1.05;;;;;;;26.92;47.19;100659.56;4989501;28;20097;-69
2022/06/16 04:48:36;;;;;;;4.03;0.90;;;;;;;26.89;47.06;100662.72;4989590;28;20119;-70
2022/06/16 04:51:03;;;;;;;8.40;0.65;;;;;;;26.90;47.43;100664.34;4987939;28;20031;-70
2022/06/16 04:53:30;;;;;;;1.80;0.57;;;;;;;26.93;47.01;100661.19;4989475;28;20088;-71
2022/06/16 04:55:57;;;;;;;5.15;0.70;;;;;;;26.94;47.11;100658.22;4990448;28;20038;-69
2022/06/16 04:58:24;;;;;;;9.82;1.23;;;;;;;26.97;46.98;100662.31;4987705;28;20359;-69
2022/06/16 05:00:51;;;;;;;3.30;0.70;;;;;;;26.99;46.95;100662.88;4991253;28;20076;-70
2022/06/16 05:03:19;;;;;;;3.83;0.93;;;;;;;27.01;46.85;100663.44;4990234;28;20062;-69
2022/06/16 05:05:46;;;;;;;1.77;0.60;;;;;;;27.02;46.76;100670.38;4988262;28;20030;-71
2022/06/16 05:08:13;;;;;;;3.70;0.70;;;;;;;27.03;46.70;100667.47;4989620;28;20081;-69
2022/06/16 05:10:39;;;;;;;2.47;0.57;;;;;;;27.04;46.83;100657.59;4989171;28;20038;-71
2022/06/16 05:13:04;;;;;;;3.53;0.90;;;;;;;27.03;46.87;100656.78;4989095;28;20030;-70
2022/06/16 05:15:30;;;;;;;3.83;0.95;;;;;;;27.03;46.94;100642.59;4990966;28;20411;-70
2022/06/16 05:17:55;;;;;;;3.38;1.13;;;;;;;27.03;46.84;100634.56;4989801;28;20026;-70
2022/06/16 05:20:21;;;;;;;3.78;1.02;;;;;;;27.01;47.04;100636.69;4989414;28;20028;-70
2022/06/16 05:22:46;;;;;;;3.05;1.15;;;;;;;27.00;46.98;100643.91;4986720;28;20036;-71
2022/06/16 05:25:12;;;;;;;1.50;0.60;;;;;;;27.00;47.12;100654.59;4989269;28;20085;-69
2022/06/16 05:27:37;;;;;;;3.17;0.90;;;;;;;27.00;46.88;100657.28;4989064;28;20470;-70
2022/06/16 05:30:04;;;;;;;1.48;0.63;;;;;;;27.01;46.78;100666.09;4986223;28;20034;-69
2022/06/16 05:32:29;;;;;;;1.30;0.75;;;;;;;27.01;46.95;100671.44;4988736;28;20027;-70
2022/06/16 05:34:55;;;;;;;1.73;0.60;;;;;;;27.00;47.02;100667.97;4988964;28;20022;-69
2022/06/16 05:37:20;;;;;;;3.17;0.85;;;;;;;27.00;47.00;100672.50;4997108;28;20042;-69
2022/06/16 05:39:47;;;;;;;3.65;1.00;;;;;;;26.99;46.65;100671.69;4985422;28;20563;-70
2022/06/16 05:42:13;;;;;;;3.53;0.80;;;;;;;26.99;47.36;100677.03;4985476;28;20109;-71
2022/06/16 05:44:38;;;;;;;2.75;1.05;;;;;;;27.00;47.67;100685.88;4988761;28;20032;-71
2022/06/16 05:47:05;;;;;;;3.67;1.20;;;;;;;27.00;48.04;100689.34;4990259;28;20034;-71
2022/06/16 05:49:32;;;;;;;1.67;1.23;;;;;;;27.01;47.99;100692.84;4969739;28;20416;-70
2022/06/16 05:51:57;;;;;;;7.55;1.73;;;;;;;27.05;48.40;100680.59;4989009;28;20472;-69
2022/06/16 05:54:23;;;;;;;6.25;1.08;;;;;;;27.06;48.29;100685.69;4987668;28;20069;-71
2022/06/16 05:56:48;;;;;;;3.83;1.33;;;;;;;27.04;48.21;100689.66;4988005;28;20061;-70
2022/06/16 05:59:14;;;;;;;2.22;1.20;;;;;;;26.99;48.02;100700.28;4969842;28;20093;-70
2022/06/16 06:01:39;;;;;;;3.17;1.27;;;;;;;26.98;48.62;100698.69;4984807;28;20075;-70
2022/06/16 06:04:05;;;;;;;2.85;0.95;;;;;;;26.99;48.25;100700.28;4987447;28;20030;-70
2022/06/16 06:06:30;;;;;;;3.72;1.17;;;;;;;27.00;47.77;100693.88;4989253;28;20038;-71
2022/06/16 06:17:16;;;;;;;7.25;1.08;;;;;;;27.02;47.81;100692.59;4988918;28;20060;-72
2022/06/16 06:19:41;;;;;;;4.68;1.30;;;;;;;27.01;47.95;100696.31;4991616;28;20433;-73
2022/06/16 06:22:15;;;;;;;4.82;1.35;;;;;;;27.01;47.91;100706.19;4991089;28;20112;-71
2022/06/16 06:24:43;;;;;;;5.90;1.58;;;;;;;26.98;47.45;100698.69;4993530;28;20052;-71
2022/06/16 06:27:19;;;;;;;1.73;0.60;;;;;;;26.95;47.67;100707.97;4991288;28;20122;-72
2022/06/16 06:29:46;;;;;;;6.88;0.98;;;;;;;26.95;47.76;100709.84;4975485;28;20045;-70
2022/06/16 06:32:13;;;;;;;6.22;1.13;;;;;;;26.95;47.48;100707.97;4988826;28;20026;-70
2022/06/16 06:34:39;;;;;;;2.65;0.80;;;;;;;26.95;47.48;100718.66;4991167;28;20030;-72
2022/06/16 06:37:06;;;;;;;3.92;1.40;;;;;;;26.97;47.28;100723.78;4990748;28;20030;-72
2022/06/16 06:39:32;;;;;;;4.32;1.17;;;;;;;26.96;47.50;100716.81;4985170;28;20550;-72
2022/06/16 06:41:57;;;;;;;3.00;0.95;;;;;;;26.96;47.41;100708.81;4987680;28;20109;-72
2022/06/16 06:44:23;;;;;;;4.40;1.23;;;;;;;26.96;47.65;100698.13;4988741;28;20153;-72
2022/06/16 06:46:49;;;;;;;7.28;1.33;;;;;;;26.94;47.81;100706.34;4987278;28;20034;-72
2022/06/16 06:49:14;;;;;;;4.20;1.10;;;;;;;26.93;47.42;100710.09;4988131;28;20499;-72
2022/06/16 06:51:39;;;;;;;2.83;0.82;;;;;;;26.91;47.30;100706.06;4986531;28;20026;-73
2022/06/16 06:54:05;;;;;;;5.43;0.90;;;;;;;26.91;47.23;100706.88;4990378;28;20076;-73
2022/06/16 06:56:32;;;;;;;4.15;0.95;;;;;;;26.92;47.40;100718.38;4988948;28;20054;-72
2022/06/16 06:59:00;;;;;;;4.75;1.55;;;;;;;26.92;47.48;100713.03;4988221;28;20044;-73
2022/06/16 07:01:25;;;;;;;1.85;0.98;;;;;;;26.94;47.33;100722.38;4986303;28;20034;-72
2022/06/16 07:03:51;;;;;;;4.82;1.25;;;;;;;26.95;47.52;100717.84;4986730;28;20041;-72
2022/06/16 07:06:18;;;;;;;2.30;1.10;;;;;;;26.94;47.21;100713.59;4986132;28;20125;-72
2022/06/16 07:08:45;;;;;;;5.72;0.90;;;;;;;26.93;47.35;100718.13;4987315;28;20903;-72
2022/06/16 07:11:11;;;;;;;2.97;0.95;;;;;;;26.94;47.55;100710.91;4984463;28;20402;-71
2022/06/16 07:13:36;;;;;;;3.92;1.00;;;;;;;26.95;47.54;100704.47;4983362;28;20117;-71
2022/06/16 07:16:02;;;;;;;3.95;1.00;;;;;;;26.96;47.30;100708.81;4985837;28;20042;-71
2022/06/16 07:18:28;;;;;;;4.22;0.73;;;;;;;26.95;47.36;100699.94;4988301;28;20046;-71
2022/06/16 07:20:53;;;;;;;5.90;1.05;;;;;;;26.96;47.31;100703.47;4987710;28;20026;-71
2022/06/16 07:23:19;;;;;;;7.32;1.00;;;;;;;26.97;47.61;100697.06;4988283;28;20054;-70
2022/06/16 07:25:49;;;;;;;1.80;0.73;;;;;;;26.96;47.87;100696.25;4988430;28;20027;-71
2022/06/16 07:28:16;;;;;;;4.78;1.08;;;;;;;26.94;47.94;100692.19;4988329;28;20033;-70
2022/06/16 07:30:42;;;;;;;2.58;0.93;;;;;;;26.92;47.81;100686.28;4987154;28;20117;-71
2022/06/16 07:33:07;;;;;;;2.00;0.95;;;;;;;26.93;47.75;100693.25;4987961;28;20030;-71
2022/06/16 07:35:34;;;;;;;1.20;0.88;;;;;;;26.94;47.83;100694.88;4988144;28;20477;-71
2022/06/16 07:38:00;;;;;;;2.55;0.75;;;;;;;26.93;47.66;100699.41;4987818;28;20486;-70
2022/06/16 07:40:26;;;;;;;2.25;0.90;;;;;;;26.94;47.65;100694.88;4987361;28;20037;-72
2022/06/16 07:42:56;;;;;;;4.28;0.90;;;;;;;26.92;47.82;100696.97;4987977;28;20093;-71
2022/06/16 07:45:23;;;;;;;4.05;1.20;;;;;;;26.90;47.86;100688.41;4985653;28;20061;-71
2022/06/16 07:47:50;;;;;;;6.75;0.93;;;;;;;26.90;47.89;100685.72;4988458;28;20378;-71
2022/06/16 07:50:16;;;;;;;2.10;0.73;;;;;;;26.90;47.68;100688.41;4987947;28;20038;-72
2022/06/16 07:52:41;;;;;;;2.95;0.90;;;;;;;26.92;47.97;100696.97;4985909;28;20035;-70
2022/06/16 07:55:08;;;;;;;2.65;0.90;;;;;;;26.93;47.91;100693.25;4988810;28;20398;-71
2022/06/16 07:57:43;;;;;;;3.65;0.88;;;;;;;26.93;48.02;100688.72;4991268;28;20206;-70
2022/06/16 08:00:12;;;;;;;2.60;0.95;;;;;;;26.95;48.05;100688.44;4991346;28;20038;-71
2022/06/16 08:02:38;;;;;;;5.80;1.10;;;;;;;26.96;48.33;100695.44;4988714;28;20045;-72
2022/06/16 08:05:05;;;;;;;2.97;0.95;;;;;;;26.97;48.22;100697.88;4991191;28;20446;-71
2022/06/16 08:07:30;;;;;;;2.00;0.80;;;;;;;26.98;48.51;100690.66;4991058;28;20317;-70
2022/06/16 08:09:56;;;;;;;1.58;0.70;;;;;;;26.98;48.25;100696.00;4991324;28;20296;-70
2022/06/16 08:12:21;;;;;;;2.97;1.08;;;;;;;26.98;48.46;100685.31;4989268;28;20050;-72
2022/06/16 08:14:48;;;;;;;1.00;0.85;;;;;;;26.99;48.46;100687.72;4991022;28;20449;-70
2022/06/16 08:17:27;;;;;;;2.78;0.95;;;;;;;27.01;48.42;100698.19;4988417;28;20034;-71
2022/06/16 08:19:54;;;;;;;2.72;0.98;;;;;;;27.03;48.26;100693.41;4991242;28;20030;-72
2022/06/16 08:22:20;;;;;;;1.17;0.68;;;;;;;27.04;48.52;100703.03;4990200;28;20034;-71
2022/06/16 08:24:47;;;;;;;2.03;0.88;;;;;;;27.04;48.94;100697.69;4990829;28;20026;-71
2022/06/16 08:27:14;;;;;;;5.10;1.05;;;;;;;27.04;48.81;100703.03;4991018;28;20128;-70
2022/06/16 08:29:42;;;;;;;1.58;1.05;;;;;;;27.04;48.99;100706.53;4990777;28;20495;-72
2022/06/16 08:32:12;;;;;;;3.85;1.33;;;;;;;27.05;48.76;100701.97;4989746;28;20038;-70
2022/06/16 08:34:38;;;;;;;1.73;0.77;;;;;;;27.05;49.09;100710.81;4990786;28;20034;-71
2022/06/16 08:37:04;;;;;;;1.92;1.02;;;;;;;27.07;49.00;100699.88;4991072;28;20464;-70
2022/06/16 08:39:29;;;;;;;1.60;0.70;;;;;;;27.07;48.98;100697.19;4990397;28;20410;-71
2022/06/16 08:42:21;;;;;;;3.08;0.80;;;;;;;27.05;49.34;100700.13;4988088;28;20038;-71
2022/06/16 08:44:52;;;;;;;4.18;0.80;;;;;;;27.06;49.06;100693.72;4974779;28;20049;-72
2022/06/16 08:48:04;;;;;;;1.38;0.85;;;;;;;27.06;48.99;100687.56;4989766;28;20562;-71
2022/06/16 08:51:18;;;;;;;3.50;0.90;;;;;;;27.05;48.82;100680.59;4936235;29;20047;-71
2022/06/16 08:54:33;;;;;;;1.67;0.90;;;;;;;27.05;48.92;100675.25;4849939;29;20212;-72
2022/06/16 08:57:01;;;;;;;1.95;0.93;;;;;;;27.08;48.70;100674.75;4763861;30;20050;-71
2022/06/16 08:59:30;;;;;;;2.65;0.95;;;;;;;27.10;48.46;100677.97;4763955;30;20160;-70
2022/06/16 09:02:00;;;;;;;1.88;1.13;;;;;;;27.10;48.54;100661.94;4763123;30;20055;-71
2022/06/16 09:04:42;;;;;;;2.55;0.98;;;;;;;27.12;48.21;100659.81;4763983;30;20047;-71
2022/06/16 09:07:32;;;;;;;2.08;1.02;;;;;;;27.12;48.12;100651.81;4763850;30;20054;-71
2022/06/16 09:10:14;;;;;;;3.55;1.20;;;;;;;27.12;48.04;100651.81;4763949;30;20044;-71
2022/06/16 09:12:54;;;;;;;2.35;0.80;;;;;;;27.13;48.14;100644.59;4761882;30;20050;-71
2022/06/16 09:15:46;;;;;;;4.00;1.23;;;;;;;27.12;47.55;100641.09;4763873;30;20055;-72
2022/06/16 09:18:23;;;;;;;2.63;1.10;;;;;;;27.14;47.63;100644.34;4761930;30;20059;-70
2022/06/16 09:20:57;;;;;;;2.83;1.17;;;;;;;27.16;47.46;100644.09;4763734;30;20200;-70
2022/06/16 09:23:43;;;;;;;2.47;1.10;;;;;;;27.17;47.32;100649.19;4761839;30;20074;-71
2022/06/16 09:26:17;;;;;;;5.18;1.25;;;;;;;27.20;47.21;100647.88;4746606;30;20040;-70
2022/06/16 09:29:05;;;;;;;2.13;0.85;;;;;;;27.20;46.86;100651.38;4781641;30;20039;-72
2022/06/16 09:31:47;;;;;;;2.92;1.00;;;;;;;27.21;46.86;100652.19;4966280;28;20050;-71
2022/06/16 09:34:25;;;;;;;4.60;1.15;;;;;;;27.22;46.88;100649.25;4989401;28;20349;-71
2022/06/16 09:37:00;;;;;;;3.35;1.05;;;;;;;27.22;46.79;100643.09;4987193;28;20053;-72
2022/06/16 09:39:39;;;;;;;3.45;1.08;;;;;;;27.23;46.46;100644.72;4989557;28;20061;-71
2022/06/16 09:42:32;;;;;;;3.10;1.45;;;;;;;27.24;46.11;100649.00;4989765;28;20030;-71
2022/06/16 09:45:06;;;;;;;4.03;1.00;;;;;;;27.23;46.31;100632.16;4988685;28;20057;-72
2022/06/16 09:47:42;;;;;;;2.13;1.25;;;;;;;27.20;45.95;100627.31;4988471;28;20038;-71
2022/06/16 09:50:18;;;;;;;1.58;0.70;;;;;;;27.21;45.88;100631.59;4989491;28;20049;-71
2022/06/16 09:53:02;;;;;;;1.45;0.75;;;;;;;27.21;45.44;100630.78;4989361;28;20251;-71
2022/06/16 09:55:43;;;;;;;2.33;1.02;;;;;;;27.23;45.44;100647.38;4988313;28;20470;-70
2022/06/16 09:58:18;;;;;;;3.67;1.08;;;;;;;27.27;45.79;100648.50;4988423;28;20177;-70
2022/06/16 10:00:44;;;;;;;3.95;1.10;;;;;;;27.28;45.67;100639.44;4989346;28;20072;-71
2022/06/16 10:03:23;;;;;;;2.20;0.88;;;;;;;27.29;45.69;100641.03;4988126;28;20597;-71
2022/06/16 10:06:10;;;;;;;3.60;0.88;;;;;;;27.30;45.92;100645.34;4989025;28;20065;-72
2022/06/16 10:08:47;;;;;;;3.72;1.08;;;;;;;27.32;46.10;100657.41;4988192;28;20046;-71
2022/06/16 10:11:31;;;;;;;4.38;0.98;;;;;;;27.32;46.01;100649.38;4989023;28;20062;-70
2022/06/16 10:14:14;;;;;;;1.80;0.95;;;;;;;27.33;46.03;100637.63;4987502;28;20092;-70
2022/06/16 10:17:10;;;;;;;4.15;1.08;;;;;;;27.35;45.93;100645.41;4989153;28;20030;-71
2022/06/16 10:19:40;;;;;;;2.70;1.05;;;;;;;27.35;46.01;100635.50;4978112;28;20042;-71
2022/06/16 10:22:07;;;;;;;1.40;1.10;;;;;;;27.36;46.39;100639.00;4988787;28;20029;-72
2022/06/16 10:24:59;;;;;;;4.43;1.15;;;;;;;27.37;46.59;100624.56;4988534;28;20125;-71
2022/06/16 10:27:40;;;;;;;3.65;1.58;;;;;;;27.38;46.78;100620.81;4972823;28;20038;-71
2022/06/16 10:30:08;;;;;;;2.03;1.08;;;;;;;27.41;46.90;100623.00;4987069;28;20049;-71
2022/06/16 10:32:41;;;;;;;1.30;0.98;;;;;;;27.46;46.92;100630.22;4969245;28;20045;-71
2022/06/16 10:35:19;;;;;;;3.00;1.35;;;;;;;27.49;46.78;100627.06;4969331;28;20177;-71
2022/06/16 10:37:48;;;;;;;2.65;1.35;;;;;;;27.47;47.07;100623.81;4969506;28;20039;-72
2022/06/16 10:40:18;;;;;;;2.30;1.38;;;;;;;27.46;47.24;100611.50;4969118;28;20133;-72
2022/06/16 10:42:47;;;;;;;3.42;1.23;;;;;;;27.45;46.96;100618.72;4986184;28;20517;-72
2022/06/16 10:45:22;;;;;;;3.58;1.65;;;;;;;27.47;46.72;100616.59;4988301;28;20089;-71
2022/06/16 10:48:19;;;;;;;3.88;1.30;;;;;;;27.51;46.92;100619.59;4988753;28;20045;-71
2022/06/16 10:51:03;;;;;;;2.65;1.10;;;;;;;27.52;46.67;100610.50;4956210;28;20046;-71
2022/06/16 10:53:36;;;;;;;2.72;1.40;;;;;;;27.58;46.93;100609.50;4969006;28;20381;-71
2022/06/16 10:56:10;;;;;;;3.15;1.10;;;;;;;27.59;46.42;100613.81;4969099;28;20027;-71
2022/06/16 10:58:58;;;;;;;4.10;1.67;;;;;;;27.56;46.43;100617.78;4969120;28;20050;-71
2022/06/16 11:01:36;;;;;;;6.40;1.73;;;;;;;27.56;46.39;100616.97;4969378;28;20423;-71
2022/06/16 11:04:07;;;;;;;3.63;1.10;;;;;;;27.55;46.38;100612.66;4975509;28;20026;-71
2022/06/16 11:06:33;;;;;;;3.00;1.40;;;;;;;27.56;46.33;100616.97;4988672;28;20030;-71
2022/06/16 11:09:02;;;;;;;1.67;1.10;;;;;;;27.56;46.71;100620.44;4988261;28;20031;-71
2022/06/16 11:11:39;;;;;;;3.35;1.77;;;;;;;27.58;46.38;100623.69;4986436;28;20034;-70
2022/06/16 11:14:11;;;;;;;1.98;1.48;;;;;;;27.58;46.62;100623.69;4988283;28;20037;-71
2022/06/16 11:16:37;;;;;;;4.25;1.30;;;;;;;27.57;47.07;100645.34;4988213;28;20038;-72
2022/06/16 11:19:09;;;;;;;2.42;1.30;;;;;;;27.56;46.82;100641.03;4986660;28;20077;-71
2022/06/16 11:21:35;;;;;;;3.30;1.30;;;;;;;27.55;47.06;100639.44;4987612;28;20031;-72
2022/06/16 11:24:07;;;;;;;7.32;1.50;;;;;;;27.54;46.93;100625.25;4988327;28;20514;-71
2022/06/16 11:26:35;;;;;;;3.25;1.40;;;;;;;27.59;47.06;100628.00;4982763;28;20510;-72
2022/06/16 11:29:21;;;;;;;8.85;2.20;;;;;;;27.62;46.82;100626.69;4983390;28;20038;-71
2022/06/16 11:32:00;;;;;;;4.60;1.40;;;;;;;27.65;46.86;100623.50;4991014;28;20550;-72
2022/06/16 11:34:30;;;;;;;4.10;1.48;;;;;;;27.70;46.59;100623.56;4989970;28;20038;-71
2022/06/16 11:37:05;;;;;;;2.47;1.38;;;;;;;27.72;46.73;100626.78;4991860;28;20619;-69
2022/06/16 11:39:42;;;;;;;4.88;1.35;;;;;;;27.69;46.66;100628.09;4989587;28;20054;-71
2022/06/16 11:42:48;;;;;;;4.60;1.52;;;;;;;27.66;46.86;100625.13;4991921;28;20031;-71
2022/06/16 11:45:41;;;;;;;5.55;1.42;;;;;;;27.66;47.51;100625.13;4982456;28;20114;-70
2022/06/16 11:48:26;;;;;;;4.40;2.00;;;;;;;27.73;47.51;100623.06;4989077;28;20042;-72
2022/06/16 11:50:59;;;;;;;6.80;2.97;;;;;;;27.86;51.29;100632.53;4983945;28;20038;-71
2022/06/16 11:53:43;;;;;;;6.25;2.15;;;;;;;27.92;51.60;100626.94;4991820;28;20038;-71
2022/06/16 11:56:39;;;;;;;5.15;2.88;;;;;;;27.98;54.65;100631.28;4990415;28;20487;-72
2022/06/16 11:59:20;;;;;;;3.42;2.10;;;;;;;28.07;51.82;100626.28;4990450;28;20128;-71